Time;durP1;ratioP1;P1;durP2;ratioP2;P2;SDS_P1;SDS_P2;PMS_P1;PMS_P2;Temp;Humidity;BMP_temperature;BMP_pressure;BME280_temperature;BME280_humidity;BME280_pressure;Samples;Min_cycle;Max_cycle;Signal;HPM_P1;HPM_P2
2021/10/04 00:02:30;;;;;;;6.63;6.03;;;15.00;99.90;;;;;;6225062;28;20499;-62
2021/10/04 00:05:33;;;;;;;6.67;5.80;;;15.00;99.90;;;;;;6225280;28;20475;-62
2021/10/04 00:08:36;;;;;;;6.77;6.07;;;15.00;99.90;;;;;;6224794;28;20476;-62
2021/10/04 00:11:41;;;;;;;6.57;5.70;;;14.90;99.90;;;;;;6225025;28;20472;-62
2021/10/04 00:14:44;;;;;;;7.10;6.40;;;15.00;99.90;;;;;;6225147;28;20810;-62
2021/10/04 00:17:48;;;;;;;6.83;5.60;;;14.90;99.90;;;;;;6226905;28;20525;-62
2021/10/04 00:20:51;;;;;;;7.20;5.77;;;14.90;99.90;;;;;;6229833;28;20481;-62
2021/10/04 00:23:54;;;;;;;6.97;6.27;;;14.90;99.90;;;;;;6229387;28;21038;-62
2021/10/04 00:26:59;;;;;;;7.10;6.37;;;14.90;99.90;;;;;;6229567;28;20486;-63
2021/10/04 00:30:05;;;;;;;6.80;6.10;;;14.80;99.90;;;;;;6229349;28;20472;-63
2021/10/04 00:33:08;;;;;;;6.30;5.67;;;14.90;99.90;;;;;;6229047;28;20487;-63
2021/10/04 00:36:11;;;;;;;6.53;6.00;;;14.90;99.90;;;;;;6229210;28;20463;-63
2021/10/04 00:39:16;;;;;;;7.30;6.30;;;14.80;99.90;;;;;;6229181;28;20483;-62
2021/10/04 00:42:21;;;;;;;7.77;6.17;;;14.80;99.90;;;;;;6228702;28;20975;-62
2021/10/04 00:45:27;;;;;;;6.90;6.20;;;14.80;99.90;;;;;;6229100;28;20475;-62
2021/10/04 00:48:30;;;;;;;7.10;6.40;;;14.70;99.90;;;;;;6229097;28;20484;-63
2021/10/04 00:51:33;;;;;;;8.77;7.30;;;14.70;99.90;;;;;;6229269;28;20475;-62
2021/10/04 00:54:37;;;;;;;7.37;6.63;;;14.70;99.90;;;;;;6229187;28;20440;-62
2021/10/04 00:57:43;;;;;;;7.10;6.40;;;14.60;99.90;;;;;;6229062;28;20448;-62
2021/10/04 01:00:46;;;;;;;7.47;6.10;;;14.60;99.90;;;;;;6228552;28;20537;-62
2021/10/04 01:03:49;;;;;;;8.23;5.80;;;14.60;99.90;;;;;;6229025;28;20458;-63
2021/10/04 01:06:53;;;;;;;8.13;6.50;;;14.60;99.90;;;;;;6228715;28;20483;-63
2021/10/04 01:09:56;;;;;;;7.27;5.77;;;14.60;99.90;;;;;;6228438;28;20474;-63
2021/10/04 01:13:00;;;;;;;7.53;6.70;;;14.60;99.90;;;;;;6228281;28;20463;-63
2021/10/04 01:16:04;;;;;;;7.77;6.83;;;14.50;99.90;;;;;;6228009;28;20490;-63
2021/10/04 01:19:07;;;;;;;8.07;7.27;;;14.50;99.90;;;;;;6228512;28;20468;-63
2021/10/04 01:22:12;;;;;;;7.10;6.43;;;14.50;99.90;;;;;;6227909;28;20489;-63
2021/10/04 01:25:16;;;;;;;5.97;5.37;;;14.50;99.90;;;;;;6228150;28;20472;-63
2021/10/04 01:28:19;;;;;;;6.50;5.90;;;14.40;99.90;;;;;;6227367;28;20472;-63
2021/10/04 01:31:22;;;;;;;7.27;6.40;;;14.40;99.90;;;;;;6227843;28;20476;-62
2021/10/04 01:34:26;;;;;;;12.93;7.43;;;14.40;99.90;;;;;;6228080;28;20479;-62
2021/10/04 01:37:30;;;;;;;9.40;6.57;;;14.30;99.90;;;;;;6227799;28;20471;-62
2021/10/04 01:40:34;;;;;;;9.03;8.13;;;14.30;99.90;;;;;;6227984;28;20475;-62
2021/10/04 01:43:37;;;;;;;9.00;7.83;;;14.20;99.90;;;;;;6227994;28;20468;-62
2021/10/04 01:46:40;;;;;;;10.57;8.30;;;14.10;99.90;;;;;;6227671;28;20472;-62
2021/10/04 01:49:44;;;;;;;9.87;8.87;;;14.00;99.90;;;;;;6227305;28;20479;-62
2021/10/04 01:52:48;;;;;;;9.27;8.33;;;14.00;99.90;;;;;;6227769;28;20486;-63
2021/10/04 01:55:52;;;;;;;8.47;7.67;;;13.90;99.90;;;;;;6222663;28;20476;-63
2021/10/04 01:58:55;;;;;;;7.53;6.77;;;13.90;99.90;;;;;;6227534;28;20837;-63
2021/10/04 02:01:58;;;;;;;7.60;6.90;;;14.00;99.90;;;;;;6227068;28;20527;-63
2021/10/04 02:05:01;;;;;;;9.33;7.00;;;13.90;99.90;;;;;;6228229;28;20546;-63
2021/10/04 02:08:06;;;;;;;7.30;6.60;;;13.90;99.90;;;;;;6227302;28;20976;-63
2021/10/04 02:11:10;;;;;;;7.80;7.10;;;13.90;99.90;;;;;;6227022;28;20468;-63
2021/10/04 02:14:13;;;;;;;8.53;6.90;;;14.00;99.90;;;;;;6226550;28;20972;-63
2021/10/04 02:17:17;;;;;;;10.73;6.87;;;14.00;99.90;;;;;;6226615;28;20479;-63
2021/10/04 02:20:22;;;;;;;6.60;5.93;;;14.00;99.90;;;;;;6226747;28;20529;-64
2021/10/04 02:23:27;;;;;;;7.60;5.93;;;13.90;99.90;;;;;;6226786;28;20471;-63
2021/10/04 02:26:30;;;;;;;7.33;6.63;;;13.90;99.90;;;;;;6226220;28;20484;-63
2021/10/04 02:29:33;;;;;;;6.40;5.80;;;13.90;99.90;;;;;;6225972;28;20479;-63
2021/10/04 02:32:36;;;;;;;7.60;6.80;;;13.90;99.90;;;;;;6226565;28;20533;-63
2021/10/04 02:35:40;;;;;;;6.50;5.90;;;13.90;99.90;;;;;;6226639;28;20483;-63
2021/10/04 02:38:45;;;;;;;6.47;5.83;;;13.90;99.90;;;;;;6226666;28;20490;-64
2021/10/04 02:41:48;;;;;;;7.83;6.17;;;13.90;99.90;;;;;;6225868;28;20471;-63
2021/10/04 02:44:51;;;;;;;6.93;6.10;;;13.90;99.90;;;;;;6226337;28;20475;-63
2021/10/04 02:47:57;;;;;;;5.90;5.40;;;13.90;99.90;;;;;;6226259;28;20483;-63
2021/10/04 02:51:00;;;;;;;6.43;5.83;;;13.90;99.90;;;;;;6225912;28;20983;-63
2021/10/04 02:54:05;;;;;;;6.50;6.00;;;13.80;99.90;;;;;;6225823;28;20467;-63
2021/10/04 02:57:08;;;;;;;6.10;5.20;;;13.80;99.90;;;;;;6226059;28;21018;-63
2021/10/04 03:00:13;;;;;;;8.43;6.23;;;13.80;99.90;;;;;;6225331;28;20472;-63
2021/10/04 03:03:17;;;;;;;7.60;6.57;;;13.80;99.90;;;;;;6212558;28;20480;-63
2021/10/04 03:06:20;;;;;;;6.80;6.17;;;13.70;99.90;;;;;;6226185;28;20487;-63
2021/10/04 03:09:24;;;;;;;6.20;5.60;;;13.70;99.90;;;;;;6225567;28;20468;-63
2021/10/04 03:12:27;;;;;;;6.90;6.07;;;13.70;99.90;;;;;;6226174;28;20475;-63
2021/10/04 03:15:31;;;;;;;6.57;6.03;;;13.70;99.90;;;;;;6225655;28;20464;-63
2021/10/04 03:18:34;;;;;;;6.63;5.30;;;13.70;99.90;;;;;;6225877;28;20471;-63
2021/10/04 03:21:37;;;;;;;7.00;6.07;;;13.70;99.90;;;;;;6225657;28;20479;-63
2021/10/04 03:24:42;;;;;;;7.33;6.13;;;13.60;99.90;;;;;;6226091;28;20455;-63
2021/10/04 03:27:45;;;;;;;7.17;6.47;;;13.70;99.90;;;;;;6225457;28;20487;-63
2021/10/04 03:30:48;;;;;;;6.47;5.83;;;13.60;99.90;;;;;;6225611;28;20467;-64
2021/10/04 03:33:51;;;;;;;8.07;7.20;;;13.60;99.90;;;;;;6225218;28;20784;-63
2021/10/04 03:36:56;;;;;;;7.80;6.07;;;13.60;99.90;;;;;;6225924;28;20460;-63
2021/10/04 03:40:00;;;;;;;7.47;6.70;;;13.60;99.90;;;;;;6225109;28;20479;-63
2021/10/04 03:43:04;;;;;;;9.83;6.20;;;13.60;99.90;;;;;;6225458;28;20480;-63
2021/10/04 03:46:07;;;;;;;7.40;6.60;;;13.60;99.90;;;;;;6225170;28;20471;-63
2021/10/04 03:49:11;;;;;;;6.60;6.00;;;13.60;99.90;;;;;;6225259;28;20813;-63
2021/10/04 03:52:14;;;;;;;6.93;6.33;;;13.60;99.90;;;;;;6228608;28;20475;-63
2021/10/04 03:55:19;;;;;;;8.70;5.93;;;13.60;99.90;;;;;;6230780;28;20832;-62
2021/10/04 03:58:22;;;;;;;6.67;6.07;;;13.50;99.90;;;;;;6230292;28;20805;-62
2021/10/04 04:01:26;;;;;;;8.50;6.50;;;13.50;99.90;;;;;;6229848;28;20482;-62
2021/10/04 04:04:30;;;;;;;8.33;6.10;;;13.50;99.90;;;;;;6220746;28;20463;-62
2021/10/04 04:07:33;;;;;;;7.80;5.73;;;13.40;99.90;;;;;;6230198;28;20475;-62
2021/10/04 04:10:38;;;;;;;7.70;6.97;;;13.40;99.90;;;;;;6230024;28;20478;-62
2021/10/04 04:13:41;;;;;;;8.57;7.33;;;13.40;99.90;;;;;;6229426;28;20485;-62
2021/10/04 04:16:45;;;;;;;9.17;8.03;;;13.30;99.90;;;;;;6229797;28;21042;-63
2021/10/04 04:19:48;;;;;;;8.53;6.97;;;13.30;99.90;;;;;;6229738;28;20550;-63
2021/10/04 04:22:51;;;;;;;9.47;7.80;;;13.30;99.90;;;;;;6230092;28;20482;-63
2021/10/04 04:25:56;;;;;;;8.40;6.70;;;13.30;99.90;;;;;;6229507;28;20483;-61
2021/10/04 04:28:59;;;;;;;7.53;6.53;;;13.30;99.90;;;;;;6229554;28;20468;-62
2021/10/04 04:32:03;;;;;;;8.47;6.60;;;13.20;99.90;;;;;;6228893;28;20476;-62
2021/10/04 04:35:07;;;;;;;7.37;6.67;;;13.20;99.90;;;;;;6229271;28;20789;-63
2021/10/04 04:38:10;;;;;;;10.70;7.43;;;13.20;99.90;;;;;;6229136;28;20474;-63
2021/10/04 04:41:14;;;;;;;8.50;7.47;;;13.30;99.90;;;;;;6229082;28;20815;-63
2021/10/04 04:44:17;;;;;;;8.23;7.00;;;13.30;99.90;;;;;;6229364;28;20534;-63
2021/10/04 04:47:21;;;;;;;7.27;6.53;;;13.30;99.90;;;;;;6228975;28;20487;-63
2021/10/04 04:50:24;;;;;;;6.83;6.13;;;13.30;99.90;;;;;;6228620;28;20964;-62
2021/10/04 04:53:27;;;;;;;7.07;6.37;;;13.30;99.90;;;;;;6229119;28;20479;-62
2021/10/04 04:56:31;;;;;;;6.77;6.17;;;13.30;99.90;;;;;;6228788;28;20495;-62
2021/10/04 04:59:35;;;;;;;8.00;6.40;;;13.30;99.90;;;;;;6228761;28;20490;-63
2021/10/04 05:02:38;;;;;;;7.20;6.43;;;13.30;99.90;;;;;;6227416;28;20967;-63
2021/10/04 05:05:41;;;;;;;7.40;6.60;;;13.30;99.90;;;;;;6228767;28;20491;-63
2021/10/04 05:08:45;;;;;;;11.40;6.70;;;13.30;99.90;;;;;;6219978;28;20482;-63
2021/10/04 05:11:49;;;;;;;9.47;6.60;;;13.30;99.90;;;;;;6228107;28;20935;-63
2021/10/04 05:14:53;;;;;;;7.13;6.43;;;13.30;99.90;;;;;;6228170;28;20483;-63
2021/10/04 05:17:56;;;;;;;10.13;6.20;;;13.30;99.90;;;;;;6228619;28;20464;-64
2021/10/04 05:20:59;;;;;;;9.57;7.20;;;13.30;99.90;;;;;;6228109;28;20471;-63
2021/10/04 05:24:02;;;;;;;7.10;6.17;;;13.40;99.90;;;;;;6227819;28;20483;-63
2021/10/04 05:27:07;;;;;;;9.30;7.07;;;13.40;99.90;;;;;;6228052;28;20483;-63
2021/10/04 05:30:11;;;;;;;7.83;7.03;;;13.40;99.90;;;;;;6227889;28;21108;-62
2021/10/04 05:33:14;;;;;;;6.67;6.07;;;13.50;99.90;;;;;;6227640;28;20483;-62
2021/10/04 05:36:17;;;;;;;9.83;6.50;;;13.40;99.90;;;;;;6227710;28;20803;-61
2021/10/04 05:39:20;;;;;;;8.33;6.20;;;13.40;99.90;;;;;;6227704;28;20479;-63
2021/10/04 05:42:27;;;;;;;12.83;7.60;;;13.50;99.90;;;;;;6227997;28;20495;-62
2021/10/04 05:45:30;;;;;;;7.20;6.50;;;13.50;99.90;;;;;;6237425;28;20474;-62
2021/10/04 05:48:35;;;;;;;8.50;6.37;;;13.50;99.90;;;;;;6235080;28;20963;-62
2021/10/04 05:51:38;;;;;;;9.57;6.97;;;13.50;99.90;;;;;;6236446;28;20444;-62
2021/10/04 05:54:41;;;;;;;8.33;6.53;;;13.60;99.90;;;;;;6240079;28;20439;-62
2021/10/04 05:57:46;;;;;;;9.83;7.07;;;13.70;99.90;;;;;;6238958;28;20439;-61
2021/10/04 06:00:50;;;;;;;7.20;6.27;;;13.70;99.90;;;;;;6244400;28;20467;-61
2021/10/04 06:03:54;;;;;;;8.33;6.23;;;13.70;99.90;;;;;;6243266;28;20469;-61
2021/10/04 06:06:57;;;;;;;7.73;7.03;;;13.80;99.90;;;;;;6227533;28;20457;-63
2021/10/04 06:10:00;;;;;;;12.97;7.80;;;13.80;99.90;;;;;;6222959;28;20467;-62
2021/10/04 06:13:05;;;;;;;11.20;7.30;;;13.90;99.90;;;;;;6227048;28;20476;-61
2021/10/04 06:16:08;;;;;;;9.57;7.57;;;14.00;99.90;;;;;;6226786;28;20470;-62
2021/10/04 06:19:11;;;;;;;9.90;7.17;;;14.10;99.90;;;;;;6227229;28;20478;-63
2021/10/04 06:22:15;;;;;;;7.60;6.90;;;14.20;99.90;;;;;;6226580;28;21015;-63
2021/10/04 06:25:19;;;;;;;12.53;7.50;;;14.30;99.90;;;;;;6227056;28;20468;-63
2021/10/04 06:28:23;;;;;;;10.20;6.77;;;14.30;99.90;;;;;;6226717;28;20479;-63
2021/10/04 06:31:27;;;;;;;8.77;6.57;;;14.40;99.90;;;;;;6226651;28;20476;-61
2021/10/04 06:34:30;;;;;;;7.70;6.90;;;14.50;99.90;;;;;;6226773;28;20498;-61
2021/10/04 06:37:33;;;;;;;7.50;5.87;;;14.60;99.90;;;;;;6226317;28;20612;-61
2021/10/04 06:40:36;;;;;;;12.33;7.20;;;14.60;99.90;;;;;;6226893;28;20479;-61
2021/10/04 06:43:41;;;;;;;10.40;7.00;;;14.70;99.90;;;;;;6226561;28;20467;-62
2021/10/04 06:46:44;;;;;;;10.73;6.70;;;14.80;99.90;;;;;;6226031;28;20483;-62
2021/10/04 06:49:47;;;;;;;7.30;6.27;;;14.90;99.90;;;;;;6226442;28;20476;-61
2021/10/04 06:52:51;;;;;;;9.60;6.27;;;15.00;99.90;;;;;;6226312;28;20471;-61
2021/10/04 06:55:54;;;;;;;10.20;7.30;;;15.10;99.90;;;;;;6225927;28;20478;-62
2021/10/04 06:58:59;;;;;;;8.20;6.20;;;15.20;99.90;;;;;;6226147;28;20474;-62
2021/10/04 07:02:02;;;;;;;9.77;6.37;;;15.30;99.90;;;;;;6225355;28;20471;-62
2021/10/04 07:05:07;;;;;;;9.97;7.13;;;15.40;99.90;;;;;;6234548;28;20505;-62
2021/10/04 07:08:10;;;;;;;8.30;5.83;;;15.50;99.90;;;;;;6233022;28;20979;-62
2021/10/04 07:11:13;;;;;;;8.30;6.27;;;15.60;99.90;;;;;;6244789;28;20475;-62
2021/10/04 07:14:18;;;;;;;10.50;5.93;;;15.80;99.90;;;;;;6246730;28;20483;-62
2021/10/04 07:17:21;;;;;;;11.57;7.50;;;16.10;99.90;;;;;;6236675;28;20472;-62
2021/10/04 07:20:24;;;;;;;9.10;6.10;;;16.30;99.90;;;;;;6230286;28;20487;-62
2021/10/04 07:23:28;;;;;;;7.60;6.17;;;16.60;99.90;;;;;;6224920;28;20468;-62
2021/10/04 07:26:31;;;;;;;8.53;5.47;;;16.80;99.90;;;;;;6217904;28;20494;-64
2021/10/04 07:29:35;;;;;;;6.70;5.07;;;17.10;99.90;;;;;;6207876;28;20472;-64
2021/10/04 07:32:39;;;;;;;5.40;4.90;;;18.50;99.90;;;;;;6224447;28;20490;-64
2021/10/04 07:35:42;;;;;;;12.13;5.73;;;22.20;97.00;;;;;;6204929;28;20557;-63
2021/10/04 07:38:45;;;;;;;8.70;5.87;;;26.20;86.70;;;;;;6199665;28;20295;-63
2021/10/04 07:41:49;;;;;;;7.60;5.50;;;29.40;67.40;;;;;;6199390;28;20244;-64
2021/10/04 07:44:53;;;;;;;6.43;5.83;;;31.70;52.40;;;;;;6223635;28;20232;-64
2021/10/04 07:47:56;;;;;;;6.22;5.63;;;33.10;47.00;;;;;;6223545;28;20232;-64
2021/10/04 07:51:01;;;;;;;7.82;5.13;;;33.90;43.50;;;;;;6223212;28;20232;-64
2021/10/04 07:54:04;;;;;;;6.18;5.57;;;35.40;40.70;;;;;;6225149;28;20236;-64
2021/10/04 07:57:07;;;;;;;6.55;5.45;;;36.80;37.10;;;;;;6224716;28;20552;-64
2021/10/04 08:00:12;;;;;;;7.32;5.47;;;38.30;34.20;;;;;;6213816;28;20229;-64
2021/10/04 08:03:16;;;;;;;9.63;5.60;;;39.70;31.20;;;;;;6200380;28;20251;-64
2021/10/04 08:06:19;;;;;;;6.18;4.28;;;40.40;29.70;;;;;;6200861;28;20244;-65
2021/10/04 08:09:22;;;;;;;7.03;5.47;;;41.50;28.70;;;;;;6200067;28;20240;-65
2021/10/04 08:12:26;;;;;;;9.38;5.97;;;42.30;26.90;;;;;;6200382;28;20252;-65
2021/10/04 08:15:31;;;;;;;6.00;5.40;;;42.80;26.80;;;;;;6199943;28;20236;-65
2021/10/04 08:18:34;;;;;;;9.05;5.82;;;43.90;26.00;;;;;;6199826;28;20654;-63
2021/10/04 08:21:37;;;;;;;5.25;4.75;;;44.30;25.30;;;;;;6199619;28;20689;-63
2021/10/04 08:24:41;;;;;;;8.32;7.47;;;44.80;24.50;;;;;;6200607;28;20518;-65
2021/10/04 08:27:44;;;;;;;7.85;6.45;;;45.00;24.10;;;;;;6212864;28;20670;-65
2021/10/04 08:30:49;;;;;;;7.38;6.05;;;45.40;23.80;;;;;;6225725;28;20235;-65
2021/10/04 08:33:52;;;;;;;6.00;5.50;;;46.10;23.50;;;;;;6224236;28;20198;-64
2021/10/04 08:36:55;;;;;;;7.03;5.70;;;46.70;22.90;;;;;;6224790;28;20229;-65
2021/10/04 08:39:58;;;;;;;8.38;5.30;;;47.20;22.50;;;;;;6228304;28;20686;-64
2021/10/04 08:43:01;;;;;;;5.35;4.90;;;47.00;21.90;;;;;;6228824;28;20227;-65
2021/10/04 08:46:06;;;;;;;5.63;4.82;;;47.40;21.80;;;;;;6229041;28;20254;-67
2021/10/04 08:49:10;;;;;;;6.20;5.57;;;48.30;21.70;;;;;;6228263;28;20307;-66
2021/10/04 08:52:13;;;;;;;6.88;5.03;;;48.70;21.20;;;;;;6228856;28;20224;-64
2021/10/04 08:55:18;;;;;;;5.20;4.80;;;49.30;20.90;;;;;;6228305;28;20224;-67
2021/10/04 08:58:21;;;;;;;6.28;5.68;;;49.50;20.50;;;;;;6228615;28;20224;-64
2021/10/04 09:01:30;;;;;;;8.35;7.63;;;50.00;20.30;;;;;;6228271;28;20234;-64
2021/10/04 09:04:34;;;;;;;5.32;4.93;;;50.80;19.80;;;;;;6229083;28;20309;-66
2021/10/04 09:07:42;;;;;;;6.22;5.63;;;51.10;19.50;;;;;;6244360;28;20252;-66
2021/10/04 09:10:49;;;;;;;8.35;4.97;;;51.50;19.20;;;;;;6253435;28;20297;-66
2021/10/04 09:13:52;;;;;;;5.47;4.22;;;52.00;18.80;;;;;;6253552;28;20239;-64
2021/10/04 09:17:00;;;;;;;5.20;4.80;;;52.10;18.50;;;;;;6255066;28;20709;-66
2021/10/04 09:20:05;;;;;;;4.05;3.70;;;52.20;18.40;;;;;;6253267;28;20235;-66
2021/10/04 09:23:08;;;;;;;4.75;4.38;;;52.80;18.40;;;;;;6230565;28;20232;-66
2021/10/04 09:26:31;;;;;;;4.93;4.45;;;52.60;18.40;;;;;;6227982;28;20313;-65
2021/10/04 09:29:58;;;;;;;4.53;4.13;;;52.30;18.80;;;;;;6227100;28;20240;-66
2021/10/04 09:33:03;;;;;;;6.88;3.90;;;52.90;18.70;;;;;;6213560;28;20232;-67
2021/10/04 09:36:18;;;;;;;4.63;4.30;;;53.70;18.40;;;;;;6228137;28;20535;-67
2021/10/04 09:39:24;;;;;;;5.05;4.22;;;54.10;18.10;;;;;;6227246;28;20232;-65
2021/10/04 09:42:27;;;;;;;4.47;4.07;;;53.70;18.10;;;;;;6227607;28;20228;-66
2021/10/04 09:45:32;;;;;;;4.80;3.88;;;54.20;18.00;;;;;;6227902;28;20224;-64
2021/10/04 09:48:36;;;;;;;4.05;3.72;;;53.80;18.10;;;;;;6226876;28;20692;-64
2021/10/04 09:51:52;;;;;;;5.00;4.60;;;54.50;18.10;;;;;;6227831;28;20239;-65
2021/10/04 09:54:55;;;;;;;4.65;4.35;;;54.90;17.50;;;;;;6227791;28;20243;-65
2021/10/04 09:58:08;;;;;;;4.85;4.55;;;55.10;17.60;;;;;;6227215;28;20246;-64
2021/10/04 10:01:11;;;;;;;5.88;4.45;;;55.10;17.50;;;;;;6226945;28;20685;-64
2021/10/04 10:04:20;;;;;;;4.88;4.30;;;55.60;17.20;;;;;;6227662;28;20228;-65
2021/10/04 10:07:23;;;;;;;4.53;4.13;;;56.10;17.00;;;;;;6213264;28;20309;-65
2021/10/04 10:10:26;;;;;;;5.90;4.10;;;56.00;16.90;;;;;;6202628;28;20237;-63
2021/10/04 10:13:31;;;;;;;4.53;4.22;;;55.80;17.20;;;;;;6202594;28;20225;-66
2021/10/04 10:16:37;;;;;;;4.63;4.30;;;56.20;16.80;;;;;;6205475;28;20243;-67
2021/10/04 10:19:43;;;;;;;4.40;4.07;;;56.10;16.70;;;;;;6226898;28;20242;-65
2021/10/04 10:22:47;;;;;;;7.82;4.60;;;56.20;16.50;;;;;;6225972;28;20248;-65
2021/10/04 10:25:50;;;;;;;5.13;4.82;;;56.30;16.80;;;;;;6225338;28;20246;-66
2021/10/04 10:29:23;;;;;;;5.28;4.88;;;56.40;16.70;;;;;;6216154;28;20235;-65
2021/10/04 10:32:36;;;;;;;6.43;5.20;;;56.50;16.70;;;;;;6225002;28;20318;-65
2021/10/04 10:35:49;;;;;;;4.40;4.03;;;56.70;16.50;;;;;;6224833;28;20228;-65
2021/10/04 10:39:00;;;;;;;3.97;3.67;;;56.40;16.20;;;;;;6226461;28;20232;-65
2021/10/04 10:42:11;;;;;;;4.97;4.25;;;56.20;16.60;;;;;;6226066;28;20236;-65
2021/10/04 10:45:19;;;;;;;4.68;4.15;;;56.10;16.50;;;;;;6225006;28;20584;-65
2021/10/04 10:48:41;;;;;;;4.50;4.10;;;56.00;17.00;;;;;;6224668;28;20227;-64
2021/10/04 10:52:14;;;;;;;4.38;3.70;;;56.10;16.70;;;;;;6221672;28;20235;-65
2021/10/04 10:55:33;;;;;;;5.22;4.70;;;56.20;16.40;;;;;;6222795;28;20708;-64
2021/10/04 10:58:37;;;;;;;6.60;4.20;;;56.40;16.40;;;;;;6224986;28;20224;-64
2021/10/04 11:01:40;;;;;;;5.00;4.50;;;56.80;16.60;;;;;;6224661;28;20688;-64
2021/10/04 11:04:45;;;;;;;4.97;4.47;;;56.30;16.50;;;;;;6226408;28;20313;-64
2021/10/04 11:07:55;;;;;;;4.10;3.80;;;57.00;16.50;;;;;;6243609;28;20239;-64
2021/10/04 11:11:17;;;;;;;4.38;3.97;;;57.50;15.80;;;;;;6250566;28;20234;-64
2021/10/04 11:14:21;;;;;;;3.95;3.65;;;57.70;15.30;;;;;;6250465;28;20694;-64
2021/10/04 11:17:25;;;;;;;4.18;3.88;;;56.20;16.50;;;;;;6250145;28;20223;-64
2021/10/04 11:20:28;;;;;;;4.38;3.95;;;57.20;16.40;;;;;;6249821;28;20619;-64
2021/10/04 11:23:33;;;;;;;3.90;3.70;;;58.20;15.70;;;;;;6249969;28;20311;-64
2021/10/04 11:26:39;;;;;;;5.07;3.88;;;58.40;15.30;;;;;;6247542;28;20235;-64
2021/10/04 11:29:43;;;;;;;3.95;3.65;;;58.80;15.20;;;;;;6200834;28;20688;-65
2021/10/04 11:33:07;;;;;;;3.67;3.47;;;58.90;14.80;;;;;;6197248;28;20241;-65
2021/10/04 11:36:11;;;;;;;3.30;3.10;;;56.10;15.70;;;;;;6200842;28;20252;-65
2021/10/04 11:39:17;;;;;;;3.92;3.35;;;55.90;16.10;;;;;;6200809;28;20228;-65
2021/10/04 11:42:24;;;;;;;4.47;4.18;;;56.60;15.70;;;;;;6200413;28;20240;-65
2021/10/04 11:45:28;;;;;;;3.35;3.10;;;55.50;16.00;;;;;;6201005;28;20240;-65
2021/10/04 11:48:35;;;;;;;4.75;4.13;;;55.60;16.20;;;;;;6200491;28;20665;-65
2021/10/04 11:51:45;;;;;;;3.83;3.42;;;55.50;16.30;;;;;;6200960;28;20229;-65
2021/10/04 11:54:50;;;;;;;3.55;3.25;;;55.70;16.10;;;;;;6216678;28;20227;-65
2021/10/04 11:57:54;;;;;;;3.42;3.22;;;56.60;15.70;;;;;;6225679;28;20214;-65
2021/10/04 12:00:57;;;;;;;2.30;2.10;;;57.20;15.50;;;;;;6224775;28;20239;-64
2021/10/04 12:04:04;;;;;;;1.75;1.65;;;57.70;14.90;;;;;;6222343;28;20228;-65
2021/10/04 12:07:08;;;;;;;1.73;1.63;;;57.50;14.80;;;;;;6236798;28;20232;-65
2021/10/04 12:10:11;;;;;;;2.03;1.92;;;56.60;15.00;;;;;;6249837;28;20663;-64
2021/10/04 12:13:18;;;;;;;1.95;1.75;;;56.60;15.00;;;;;;6252689;28;20233;-64
2021/10/04 12:16:23;;;;;;;1.98;1.77;;;56.60;15.00;;;;;;6254557;28;20224;-64
2021/10/04 12:19:26;;;;;;;2.47;2.28;;;56.90;14.90;;;;;;6254127;28;20265;-65
2021/10/04 12:22:31;;;;;;;1.83;1.73;;;57.10;14.90;;;;;;6254185;28;20234;-65
2021/10/04 12:25:34;;;;;;;2.00;1.90;;;56.60;14.80;;;;;;6238366;28;20234;-65
2021/10/04 12:28:46;;;;;;;1.70;1.60;;;56.00;15.00;;;;;;6229269;28;20228;-64
2021/10/04 12:31:49;;;;;;;2.53;2.22;;;52.90;16.20;;;;;;6229334;28;20567;-64
2021/10/04 12:35:01;;;;;;;4.00;2.60;;;49.00;18.50;;;;;;6228969;28;20224;-66
2021/10/04 12:38:08;;;;;;;8.68;6.00;;;49.00;19.40;;;;;;6230557;28;20244;-64
2021/10/04 12:41:11;;;;;;;2.90;1.55;;;49.00;19.60;;;;;;6229207;28;20255;-63
2021/10/04 12:44:18;;;;;;;4.03;2.28;;;48.50;19.20;;;;;;6228247;28;20230;-67
2021/10/04 12:47:22;;;;;;;5.10;3.10;;;48.90;19.20;;;;;;6229266;28;20236;-64
2021/10/04 12:50:29;;;;;;;2.25;2.05;;;50.10;19.20;;;;;;6221382;28;20231;-64
2021/10/04 12:53:33;;;;;;;2.10;2.00;;;51.20;17.80;;;;;;6204958;28;20228;-65
2021/10/04 12:56:38;;;;;;;2.70;2.50;;;49.30;18.40;;;;;;6204566;28;20247;-64
2021/10/04 12:59:43;;;;;;;2.70;2.50;;;46.90;20.50;;;;;;6204595;28;20279;-64
2021/10/04 13:02:58;;;;;;;2.95;2.53;;;48.00;20.40;;;;;;6204400;28;20306;-63
2021/10/04 13:06:01;;;;;;;4.32;3.53;;;49.70;19.60;;;;;;6209368;28;20264;-64
2021/10/04 13:09:06;;;;;;;11.20;3.28;;;51.40;18.90;;;;;;6252537;28;20241;-64
2021/10/04 13:12:10;;;;;;;3.40;3.15;;;49.50;19.30;;;;;;6253050;28;20301;-64
2021/10/04 13:15:14;;;;;;;3.70;3.40;;;45.40;21.70;;;;;;6252834;28;20233;-63
2021/10/04 13:18:17;;;;;;;4.38;3.97;;;40.90;25.20;;;;;;6231452;28;20231;-64
2021/10/04 13:21:22;;;;;;;3.63;3.33;;;37.70;28.50;;;;;;6227654;28;20220;-67
2021/10/04 13:24:25;;;;;;;3.60;3.30;;;35.40;31.50;;;;;;6227399;28;20306;-65
2021/10/04 13:27:28;;;;;;;4.05;2.78;;;33.60;34.10;;;;;;6227363;28;20228;-63
2021/10/04 13:30:33;;;;;;;3.03;2.78;;;33.20;34.80;;;;;;6227852;28;20243;-65
2021/10/04 13:33:36;;;;;;;3.47;2.95;;;33.60;35.20;;;;;;6238024;28;20224;-64
2021/10/04 13:36:39;;;;;;;2.00;1.60;;;33.90;34.40;;;;;;6247976;28;20759;-65
2021/10/04 13:39:43;;;;;;;1.52;1.35;;;33.80;33.20;;;;;;6227395;28;20197;-66
2021/10/04 13:42:46;;;;;;;4.68;1.70;;;33.50;33.00;;;;;;6249313;28;20678;-67
2021/10/04 13:45:50;;;;;;;2.97;2.05;;;32.80;33.70;;;;;;6240480;28;20663;-66
2021/10/04 13:48:53;;;;;;;2.47;1.85;;;32.20;34.80;;;;;;6228289;28;20228;-65
2021/10/04 13:51:57;;;;;;;1.92;1.67;;;31.60;35.80;;;;;;6227470;28;20228;-65
2021/10/04 13:55:01;;;;;;;4.30;1.30;;;31.00;37.00;;;;;;6227310;28;20649;-64
2021/10/04 13:58:04;;;;;;;1.63;1.52;;;30.40;38.00;;;;;;6226964;28;20691;-65
2021/10/04 14:01:09;;;;;;;3.50;1.90;;;29.90;39.00;;;;;;6211784;28;20236;-65
2021/10/04 14:04:12;;;;;;;2.13;1.60;;;29.50;40.50;;;;;;6203419;28;20229;-65
2021/10/04 14:07:15;;;;;;;1.80;1.63;;;28.90;40.80;;;;;;6215535;28;20227;-65
2021/10/04 14:10:19;;;;;;;2.80;2.13;;;28.60;41.80;;;;;;6245405;28;20228;-65
2021/10/04 14:13:22;;;;;;;2.57;1.97;;;28.30;42.10;;;;;;6231638;28;20226;-65
2021/10/04 14:16:27;;;;;;;3.00;1.77;;;28.10;42.80;;;;;;6226962;28;20239;-65
2021/10/04 14:19:30;;;;;;;3.43;1.93;;;27.90;43.00;;;;;;6226585;28;20256;-65
2021/10/04 14:22:33;;;;;;;3.70;1.90;;;27.70;43.80;;;;;;6226903;28;20239;-65
2021/10/04 14:25:38;;;;;;;4.33;2.17;;;27.50;44.40;;;;;;6226364;28;20279;-65
2021/10/04 14:28:41;;;;;;;2.47;2.13;;;27.40;44.80;;;;;;6226458;28;20559;-65
2021/10/04 14:31:46;;;;;;;2.07;1.80;;;27.20;45.20;;;;;;6228652;28;20239;-65
2021/10/04 14:34:49;;;;;;;3.93;2.63;;;27.10;45.70;;;;;;6226129;28;20240;-68
2021/10/04 14:37:53;;;;;;;2.70;2.50;;;27.00;46.00;;;;;;6229851;28;20243;-67
2021/10/04 14:40:56;;;;;;;5.83;2.63;;;26.80;46.40;;;;;;6227470;28;20230;-66
2021/10/04 14:44:00;;;;;;;3.20;2.43;;;26.60;47.00;;;;;;6217216;28;20611;-64
2021/10/04 14:47:04;;;;;;;3.53;2.13;;;26.40;47.60;;;;;;6226326;28;20228;-64
2021/10/04 14:50:10;;;;;;;2.40;2.20;;;26.20;48.30;;;;;;6226827;28;20307;-64
2021/10/04 14:53:13;;;;;;;2.60;2.10;;;26.10;48.90;;;;;;6226171;28;20232;-64
2021/10/04 14:56:34;;;;;;;3.13;2.80;;;25.90;49.00;;;;;;6225770;28;20236;-64
2021/10/04 14:59:37;;;;;;;3.20;2.63;;;25.80;49.40;;;;;;6226097;28;20239;-64
2021/10/04 15:02:42;;;;;;;4.83;2.50;;;25.70;49.90;;;;;;6222568;28;20228;-64
2021/10/04 15:05:46;;;;;;;2.97;2.77;;;25.60;50.20;;;;;;6224490;28;20685;-64
2021/10/04 15:08:49;;;;;;;3.73;2.80;;;25.60;50.40;;;;;;6249117;28;20572;-64
2021/10/04 15:11:52;;;;;;;3.63;3.33;;;25.60;50.70;;;;;;6250368;28;20223;-64
2021/10/04 15:14:55;;;;;;;3.00;2.53;;;25.60;50.50;;;;;;6238161;28;20224;-64
2021/10/04 15:17:59;;;;;;;3.70;3.30;;;25.40;50.60;;;;;;6224710;28;20231;-64
2021/10/04 15:21:03;;;;;;;5.20;3.90;;;25.40;50.70;;;;;;6225048;28;20374;-64
2021/10/04 15:24:06;;;;;;;3.13;2.57;;;25.40;50.90;;;;;;6225259;28;20228;-64
2021/10/04 15:27:09;;;;;;;2.40;2.20;;;25.30;51.10;;;;;;6235677;28;20232;-67
2021/10/04 15:30:13;;;;;;;3.40;2.30;;;25.40;51.30;;;;;;6225684;28;20231;-67
2021/10/04 15:33:17;;;;;;;2.70;2.50;;;25.40;51.50;;;;;;6225411;28;20696;-68
2021/10/04 15:36:20;;;;;;;3.50;2.40;;;25.20;51.60;;;;;;6225538;28;20330;-66
2021/10/04 15:39:24;;;;;;;2.63;2.43;;;25.30;52.00;;;;;;6225272;28;20235;-63
2021/10/04 15:42:27;;;;;;;2.90;2.70;;;25.20;52.20;;;;;;6225314;28;20247;-65
2021/10/04 15:45:30;;;;;;;3.53;2.40;;;25.20;52.40;;;;;;6225382;28;20227;-67
2021/10/04 15:48:35;;;;;;;3.00;2.43;;;25.20;52.60;;;;;;6224536;28;20235;-64
2021/10/04 15:51:39;;;;;;;2.77;2.57;;;25.10;52.90;;;;;;6230322;28;20255;-66
2021/10/04 15:54:42;;;;;;;2.73;2.07;;;25.10;53.10;;;;;;6227445;28;20211;-65
2021/10/04 15:57:46;;;;;;;2.60;2.40;;;25.00;53.20;;;;;;6230525;28;20211;-65
2021/10/04 16:00:51;;;;;;;3.20;2.90;;;24.90;53.60;;;;;;6216657;28;20668;-64